createdAt,value
2018-07-03T00:01:40.922Z,1.70
2018-07-03T00:04:11.203Z,1.83
2018-07-03T00:06:39.371Z,2.10
2018-07-03T00:09:08.715Z,2.20
2018-07-03T00:11:36.878Z,2.07
2018-07-03T00:14:05.246Z,1.93
2018-07-03T00:17:40.378Z,2.27
2018-07-03T00:20:09.024Z,2.40
2018-07-03T00:22:37.217Z,1.63
2018-07-03T00:25:05.379Z,1.70
2018-07-03T00:27:33.603Z,2.20
2018-07-03T00:30:01.809Z,1.87
2018-07-03T00:32:29.965Z,2.00
2018-07-03T00:34:58.138Z,1.90
2018-07-03T00:37:26.334Z,2.10
2018-07-03T00:39:54.954Z,2.13
2018-07-03T00:42:23.176Z,1.90
2018-07-03T00:44:52.402Z,1.70
2018-07-03T00:47:20.590Z,2.03
2018-07-03T00:49:48.801Z,1.77
2018-07-03T00:52:17.095Z,2.20
2018-07-03T00:54:45.262Z,2.30
2018-07-03T00:57:13.553Z,3.80
2018-07-03T00:59:47.084Z,2.17
2018-07-03T01:02:15.331Z,1.90
2018-07-03T01:04:43.572Z,2.00
2018-07-03T01:07:11.844Z,1.90
2018-07-03T01:09:40.118Z,2.10
2018-07-03T01:12:08.487Z,2.00
2018-07-03T01:14:36.703Z,2.10
2018-07-03T01:17:04.935Z,2.00
2018-07-03T01:19:32.960Z,2.23
2018-07-03T01:22:01.191Z,2.00
2018-07-03T01:24:29.421Z,2.33
2018-07-03T01:26:57.703Z,2.10
2018-07-03T01:29:25.934Z,2.40
2018-07-03T01:31:54.141Z,2.00
2018-07-03T01:34:22.410Z,2.03
2018-07-03T01:36:50.644Z,2.60
2018-07-03T01:39:18.612Z,2.60
2018-07-03T01:41:46.909Z,2.40
2018-07-03T01:44:15.117Z,2.13
2018-07-03T01:46:43.346Z,2.20
2018-07-03T01:49:11.547Z,2.40
2018-07-03T01:51:39.794Z,2.60
2018-07-03T01:54:08.013Z,2.33
2018-07-03T01:56:36.266Z,2.10
2018-07-03T01:59:04.503Z,2.77
2018-07-03T02:01:32.737Z,2.40
2018-07-03T02:04:00.895Z,2.40
2018-07-03T02:06:29.106Z,2.20
2018-07-03T02:08:57.295Z,2.23
2018-07-03T02:11:25.211Z,2.10
2018-07-03T02:13:53.391Z,2.40
2018-07-03T02:16:22.079Z,2.03
2018-07-03T02:18:50.245Z,1.90
2018-07-03T02:21:18.397Z,2.63
2018-07-03T02:23:46.593Z,2.20
2018-07-03T02:26:14.788Z,2.43
2018-07-03T02:28:42.984Z,2.87
2018-07-03T02:31:10.923Z,2.40
2018-07-03T02:33:39.091Z,2.40
2018-07-03T02:36:07.278Z,2.30
2018-07-03T02:38:36.113Z,2.70
2018-07-03T02:41:04.363Z,2.43
2018-07-03T02:43:32.562Z,2.37
2018-07-03T02:46:00.715Z,3.00
2018-07-03T02:48:28.886Z,2.80
2018-07-03T02:50:57.074Z,2.53
2018-07-03T02:53:25.718Z,3.03
2018-07-03T02:55:53.878Z,3.17
2018-07-03T02:58:22.127Z,2.80
2018-07-03T03:00:50.316Z,2.30
2018-07-03T03:03:18.475Z,2.40
2018-07-03T03:05:46.753Z,2.40
2018-07-03T03:08:14.926Z,3.00
2018-07-03T03:10:43.098Z,2.27
2018-07-03T03:13:11.317Z,2.30
2018-07-03T03:15:39.503Z,2.60
2018-07-03T03:18:07.664Z,2.40
2018-07-03T03:20:36.911Z,2.73
2018-07-03T03:23:05.117Z,2.60
2018-07-03T03:25:33.337Z,2.50
2018-07-03T03:28:01.270Z,2.87
2018-07-03T03:30:29.436Z,2.47
2018-07-03T03:32:57.595Z,2.57
2018-07-03T03:35:25.768Z,2.63
2018-07-03T03:37:54.033Z,2.40
2018-07-03T03:40:22.226Z,2.43
2018-07-03T03:42:50.419Z,2.97
2018-07-03T03:45:18.576Z,3.20
2018-07-03T03:47:46.754Z,3.00
2018-07-03T03:50:14.920Z,2.80
2018-07-03T03:52:43.099Z,2.63
2018-07-03T03:55:11.677Z,2.90
2018-07-03T03:57:40.336Z,2.80
2018-07-03T04:00:09.833Z,2.70
2018-07-03T04:02:38.415Z,2.87
2018-07-03T04:05:06.620Z,2.90
2018-07-03T04:07:34.819Z,2.30
2018-07-03T04:10:03.010Z,3.20
2018-07-03T04:12:30.948Z,3.80
2018-07-03T04:14:59.099Z,2.87
2018-07-03T04:17:27.273Z,2.50
2018-07-03T04:19:55.438Z,3.00
2018-07-03T04:22:23.629Z,2.90
2018-07-03T04:24:51.798Z,3.20
2018-07-03T04:27:19.953Z,2.53
2018-07-03T04:29:48.302Z,2.50
2018-07-03T04:32:16.657Z,3.00
2018-07-03T04:34:44.820Z,3.37
2018-07-03T04:37:12.971Z,2.97
2018-07-03T04:39:41.139Z,2.50
2018-07-03T04:42:09.320Z,3.63
2018-07-03T04:44:37.481Z,2.43
2018-07-03T04:47:05.654Z,2.70
2018-07-03T04:49:33.856Z,2.80
2018-07-03T04:52:02.062Z,3.10
2018-07-03T04:54:30.007Z,3.10
2018-07-03T04:56:58.186Z,2.77
2018-07-03T04:59:26.342Z,3.13
2018-07-03T05:01:54.603Z,3.33
2018-07-03T05:04:22.834Z,2.87
2018-07-03T05:06:50.815Z,2.83
2018-07-03T05:09:18.777Z,2.60
2018-07-03T05:11:47.006Z,3.23
2018-07-03T05:14:15.243Z,2.67
2018-07-03T05:16:43.464Z,3.33
2018-07-03T05:19:11.673Z,3.33
2018-07-03T05:21:39.890Z,3.30
2018-07-03T05:24:08.112Z,3.10
2018-07-03T05:26:36.037Z,3.60
2018-07-03T05:29:04.245Z,3.10
2018-07-03T05:31:32.465Z,3.27
2018-07-03T05:34:00.661Z,3.27
2018-07-03T05:36:28.895Z,3.30
2018-07-03T05:38:57.083Z,3.10
2018-07-03T05:41:25.289Z,3.67
2018-07-03T05:43:53.554Z,3.80
2018-07-03T05:46:21.767Z,4.80
2018-07-03T05:48:49.708Z,3.10
2018-07-03T05:51:17.902Z,3.63
2018-07-03T05:53:46.125Z,3.43
2018-07-03T05:56:14.370Z,3.13
2018-07-03T05:58:42.530Z,3.30
2018-07-03T06:01:10.725Z,2.93
2018-07-03T06:03:38.655Z,4.30
2018-07-03T06:06:06.893Z,3.20
2018-07-03T06:08:35.106Z,2.97
2018-07-03T06:11:03.309Z,3.13
2018-07-03T06:13:31.540Z,3.00
2018-07-03T06:15:59.750Z,2.90
2018-07-03T06:18:27.962Z,3.40
2018-07-03T06:20:56.150Z,2.87
2018-07-03T06:23:24.514Z,3.43
2018-07-03T06:25:52.770Z,2.80
2018-07-03T06:28:20.972Z,3.80
2018-07-03T06:30:49.199Z,2.87
2018-07-03T06:33:17.386Z,2.70
2018-07-03T06:35:45.336Z,3.30
2018-07-03T06:38:13.526Z,2.93
2018-07-03T06:40:41.475Z,2.90
2018-07-03T06:43:09.670Z,2.63
2018-07-03T06:45:37.605Z,2.87
2018-07-03T06:48:05.859Z,2.80
2018-07-03T06:50:34.041Z,3.30
2018-07-03T06:53:02.267Z,3.13
2018-07-03T06:55:30.206Z,2.67
2018-07-03T06:57:58.436Z,2.53
2018-07-03T07:00:27.024Z,2.50
2018-07-03T07:02:55.788Z,2.40
2018-07-03T07:05:23.938Z,2.80
2018-07-03T07:07:52.103Z,3.17
2018-07-03T07:10:20.250Z,2.60
2018-07-03T07:12:48.404Z,2.77
2018-07-03T07:15:16.582Z,3.10
2018-07-03T07:17:44.742Z,2.23
2018-07-03T07:20:12.893Z,3.10
2018-07-03T07:22:41.059Z,2.63
2018-07-03T07:25:08.965Z,2.57
2018-07-03T07:27:37.121Z,2.33
2018-07-03T07:30:05.561Z,2.50
2018-07-03T07:32:33.719Z,2.30
2018-07-03T07:35:01.893Z,2.20
2018-07-03T07:37:30.064Z,2.43
2018-07-03T07:39:58.249Z,1.90
2018-07-03T07:42:26.430Z,1.90
2018-07-03T07:44:54.665Z,1.93
2018-07-03T07:47:22.845Z,2.30
2018-07-03T07:49:51.012Z,2.67
2018-07-03T07:52:19.387Z,2.20
2018-07-03T07:54:47.543Z,1.70
2018-07-03T07:57:16.756Z,1.83
2018-07-03T07:59:44.952Z,2.07
2018-07-03T08:02:13.272Z,2.03
2018-07-03T08:04:41.502Z,1.90
2018-07-03T08:07:09.711Z,2.00
2018-07-03T08:09:37.694Z,1.83
2018-07-03T08:12:06.214Z,1.50
2018-07-03T08:14:34.448Z,1.60
2018-07-03T08:17:02.425Z,1.40
2018-07-03T08:19:30.388Z,1.97
2018-07-03T08:21:58.347Z,2.13
2018-07-03T08:24:26.784Z,1.60
2018-07-03T08:26:55.221Z,1.53
2018-07-03T08:29:23.472Z,1.10
2018-07-03T08:31:51.707Z,1.00
2018-07-03T08:34:20.037Z,1.43
2018-07-03T08:36:47.977Z,1.27
2018-07-03T08:39:16.237Z,1.13
2018-07-03T08:41:44.434Z,0.87
2018-07-03T08:44:13.031Z,1.70
2018-07-03T08:46:41.289Z,1.30
2018-07-03T08:49:09.511Z,1.00
2018-07-03T08:51:38.205Z,1.00
2018-07-03T08:54:06.508Z,1.23
2018-07-03T08:56:34.705Z,1.00
2018-07-03T08:59:02.955Z,1.03
2018-07-03T09:01:31.191Z,1.30
2018-07-03T09:03:59.421Z,1.30
2018-07-03T09:06:28.109Z,1.07
2018-07-03T09:08:56.333Z,1.00
2018-07-03T09:11:24.652Z,0.93
2018-07-03T09:13:52.843Z,0.90
2018-07-03T09:16:21.056Z,0.83
2018-07-03T09:18:49.274Z,1.27
2018-07-03T09:21:17.488Z,1.20
2018-07-03T09:23:45.780Z,1.30
2018-07-03T09:26:14.176Z,1.23
2018-07-03T09:28:42.401Z,1.00
2018-07-03T09:31:10.672Z,1.20
2018-07-03T09:33:38.836Z,1.10
2018-07-03T09:36:07.046Z,1.00
2018-07-03T09:38:35.255Z,1.00
2018-07-03T09:41:03.461Z,1.40
2018-07-03T09:43:31.669Z,1.53
2018-07-03T09:45:59.899Z,0.90
2018-07-03T09:48:28.101Z,1.00
2018-07-03T09:50:56.070Z,1.00
2018-07-03T09:53:24.284Z,1.10
2018-07-03T09:55:52.482Z,1.10
2018-07-03T09:58:20.677Z,1.23
2018-07-03T10:00:55.446Z,1.13
2018-07-03T10:03:24.611Z,0.93
2018-07-03T10:05:53.112Z,1.23
2018-07-03T10:08:21.069Z,1.20
2018-07-03T10:10:49.014Z,1.20
2018-07-03T10:13:17.215Z,1.10
2018-07-03T10:15:45.477Z,0.97
2018-07-03T10:18:13.690Z,1.50
2018-07-03T10:20:41.901Z,0.93
2018-07-03T10:23:10.119Z,0.97
2018-07-03T10:25:38.392Z,0.93
2018-07-03T10:28:06.557Z,1.00
2018-07-03T10:30:34.772Z,0.90
2018-07-03T10:33:03.000Z,1.07
2018-07-03T10:35:31.203Z,1.50
2018-07-03T10:37:59.415Z,1.43
2018-07-03T10:40:27.629Z,1.33
2018-07-03T10:42:55.589Z,1.20
2018-07-03T10:45:23.795Z,0.90
2018-07-03T10:47:52.034Z,1.03
2018-07-03T10:50:20.247Z,1.07
2018-07-03T10:52:48.455Z,0.87
2018-07-03T10:55:16.680Z,1.00
2018-07-03T10:57:44.888Z,1.30
2018-07-03T11:00:13.101Z,1.20
2018-07-03T11:02:41.272Z,1.20
2018-07-03T11:05:09.419Z,1.20
2018-07-03T11:07:37.360Z,1.10
2018-07-03T11:10:05.507Z,1.30
2018-07-03T11:12:33.451Z,1.37
2018-07-03T11:15:01.612Z,1.33
2018-07-03T11:17:29.783Z,1.40
2018-07-03T11:19:58.044Z,1.17
2018-07-03T11:22:26.128Z,1.10
2018-07-03T11:24:54.259Z,1.10
2018-07-03T11:27:22.436Z,2.70
2018-07-03T11:29:50.580Z,4.00
2018-07-03T11:32:18.981Z,3.40
2018-07-03T11:34:47.135Z,3.73
2018-07-03T11:37:15.047Z,3.93
2018-07-03T11:39:43.193Z,4.20
2018-07-03T11:42:11.358Z,4.20
2018-07-03T11:44:39.505Z,4.10
2018-07-03T11:47:07.658Z,4.73
2018-07-03T11:49:35.860Z,5.27
2018-07-03T11:52:04.350Z,4.30
2018-07-03T11:54:32.290Z,4.47
2018-07-03T11:57:00.446Z,4.27
2018-07-03T11:59:28.639Z,4.40
2018-07-03T12:01:56.842Z,3.47
2018-07-03T12:04:24.759Z,4.30
2018-07-03T12:06:52.934Z,4.30
2018-07-03T12:09:21.097Z,4.27
2018-07-03T12:11:49.241Z,4.00
2018-07-03T12:14:17.418Z,3.83
2018-07-03T12:16:45.575Z,3.83
2018-07-03T12:19:13.503Z,3.80
2018-07-03T12:21:41.655Z,3.70
2018-07-03T12:24:09.802Z,3.87
2018-07-03T12:26:37.959Z,4.20
2018-07-03T12:29:05.990Z,3.47
2018-07-03T12:31:34.125Z,3.70
2018-07-03T12:34:02.264Z,3.17
2018-07-03T12:36:30.483Z,3.87
2018-07-03T12:38:58.641Z,3.93
2018-07-03T12:41:26.793Z,3.30
2018-07-03T12:43:54.983Z,3.10
2018-07-03T12:46:23.128Z,2.70
2018-07-03T12:48:51.271Z,3.07
2018-07-03T12:51:19.419Z,2.70
2018-07-03T12:53:48.409Z,2.50
2018-07-03T12:56:16.576Z,3.20
2018-07-03T12:58:44.722Z,3.00
2018-07-03T13:01:12.874Z,2.77
2018-07-03T13:03:41.088Z,3.57
2018-07-03T13:06:09.287Z,3.20
2018-07-03T13:08:37.550Z,2.63
2018-07-03T13:11:05.754Z,2.60
2018-07-03T13:13:33.966Z,3.20
2018-07-03T13:16:02.163Z,3.30
2018-07-03T13:18:30.373Z,2.97
2018-07-03T13:20:58.558Z,2.87
2018-07-03T13:23:26.798Z,2.80
2018-07-03T13:25:54.992Z,2.80
2018-07-03T13:28:23.193Z,2.87
2018-07-03T13:30:51.406Z,2.97
2018-07-03T13:33:19.611Z,3.00
2018-07-03T13:35:47.808Z,2.97
2018-07-03T13:38:16.023Z,2.87
2018-07-03T13:40:44.233Z,2.80
2018-07-03T13:43:12.500Z,2.87
2018-07-03T13:45:40.706Z,2.90
2018-07-03T13:48:10.398Z,3.20
2018-07-03T13:50:38.660Z,2.10
2018-07-03T13:53:06.856Z,3.40
2018-07-03T13:55:35.104Z,2.67
2018-07-03T13:58:03.292Z,2.33
2018-07-03T14:00:31.504Z,2.40
2018-07-03T14:02:59.741Z,2.40
2018-07-03T14:05:28.343Z,2.47
2018-07-03T14:07:56.544Z,2.67
2018-07-03T14:10:24.732Z,2.37
2018-07-03T14:12:52.718Z,3.83
2018-07-03T14:15:20.913Z,2.90
2018-07-03T14:17:49.135Z,2.67
2018-07-03T14:20:17.397Z,3.23
2018-07-03T14:22:45.616Z,2.73
2018-07-03T14:25:13.814Z,2.53
2018-07-03T14:27:42.242Z,2.63
2018-07-03T14:30:10.189Z,2.30
2018-07-03T14:32:38.430Z,3.33
2018-07-03T14:35:06.346Z,1.97
2018-07-03T14:37:34.733Z,2.67
2018-07-03T14:40:02.931Z,2.23
2018-07-03T14:42:31.374Z,2.80
2018-07-03T14:44:59.555Z,3.10
2018-07-03T14:47:28.249Z,2.70
2018-07-03T14:49:56.397Z,2.70
2018-07-03T14:52:24.579Z,2.03
2018-07-03T14:54:52.798Z,2.33
2018-07-03T14:57:24.727Z,2.93
2018-07-03T14:59:53.255Z,1.93
2018-07-03T15:02:21.287Z,2.30
2018-07-03T15:04:49.140Z,2.03
2018-07-03T15:07:17.330Z,1.93
2018-07-03T15:09:45.261Z,1.93
2018-07-03T15:12:13.477Z,2.77
2018-07-03T15:14:41.701Z,2.33
2018-07-03T15:17:09.928Z,3.50
2018-07-03T15:19:43.491Z,2.10
2018-07-03T15:22:11.791Z,2.00
2018-07-03T15:24:39.759Z,2.20
2018-07-03T15:27:07.713Z,2.97
2018-07-03T15:29:35.907Z,2.60
2018-07-03T15:32:04.117Z,2.27
2018-07-03T15:34:32.377Z,2.30
2018-07-03T15:37:00.569Z,2.47
2018-07-03T15:39:28.778Z,2.13
2018-07-03T15:41:57.022Z,2.80
2018-07-03T15:44:36.621Z,2.30
2018-07-03T15:47:04.585Z,2.43
2018-07-03T15:49:32.780Z,2.33
2018-07-03T15:52:00.976Z,2.50
2018-07-03T15:54:29.173Z,2.30
2018-07-03T15:56:57.383Z,2.53
2018-07-03T15:59:25.840Z,2.23
2018-07-03T16:01:54.048Z,2.30
2018-07-03T16:05:27.974Z,2.03
2018-07-03T16:09:09.019Z,2.23
2018-07-03T16:11:37.724Z,2.03
2018-07-03T16:14:05.946Z,2.17
2018-07-03T16:16:34.142Z,1.87
2018-07-03T16:19:07.796Z,2.33
2018-07-03T16:21:36.102Z,2.20
2018-07-03T16:24:04.318Z,2.17
2018-07-03T16:26:32.309Z,2.60
2018-07-03T16:29:00.521Z,2.17
2018-07-03T16:31:28.738Z,2.03
2018-07-03T16:33:57.532Z,2.40
2018-07-03T16:36:25.744Z,2.17
2018-07-03T16:38:54.042Z,2.07
2018-07-03T16:41:22.332Z,2.30
2018-07-03T16:43:50.554Z,2.20
2018-07-03T16:46:18.776Z,1.97
2018-07-03T16:48:46.990Z,2.57
2018-07-03T16:51:15.204Z,2.50
2018-07-03T16:53:43.401Z,2.17
2018-07-03T16:56:11.598Z,2.60
2018-07-03T16:58:39.577Z,2.90
2018-07-03T17:01:07.911Z,2.00
2018-07-03T17:03:36.128Z,2.27
2018-07-03T17:06:04.068Z,2.20
2018-07-03T17:08:32.280Z,2.00
2018-07-03T17:11:00.476Z,2.27
2018-07-03T17:13:28.727Z,2.33
2018-07-03T17:15:56.935Z,2.40
2018-07-03T17:18:25.186Z,2.10
2018-07-03T17:20:53.744Z,2.17
2018-07-03T17:23:21.939Z,2.40
2018-07-03T17:25:50.130Z,2.27
2018-07-03T17:28:18.328Z,2.10
2018-07-03T17:30:46.529Z,2.23
2018-07-03T17:33:14.755Z,2.63
2018-07-03T17:35:42.955Z,2.67
2018-07-03T17:38:11.175Z,2.00
2018-07-03T17:40:50.735Z,2.30
2018-07-03T17:44:32.200Z,2.60
2018-07-03T17:47:00.402Z,2.57
2018-07-03T17:49:28.704Z,2.13
2018-07-03T17:51:56.952Z,2.73
2018-07-03T17:54:25.182Z,2.20
2018-07-03T17:56:53.377Z,2.80
2018-07-03T17:59:21.672Z,2.47
2018-07-03T18:01:49.818Z,2.57
2018-07-03T18:04:17.751Z,2.10
2018-07-03T18:06:45.894Z,2.33
2018-07-03T18:09:14.204Z,2.90
2018-07-03T18:11:42.378Z,2.73
2018-07-03T18:14:10.514Z,2.73
2018-07-03T18:16:38.658Z,3.10
2018-07-03T18:19:12.161Z,3.00
2018-07-03T18:21:40.501Z,3.00
2018-07-03T18:24:08.671Z,2.80
2018-07-03T18:26:36.888Z,2.90
2018-07-03T18:29:05.314Z,2.83
2018-07-03T18:31:33.471Z,2.57
2018-07-03T18:34:01.611Z,3.07
2018-07-03T18:36:29.791Z,2.87
2018-07-03T18:38:57.948Z,2.90
2018-07-03T18:41:26.117Z,2.40
2018-07-03T18:43:54.259Z,2.70
2018-07-03T18:46:22.415Z,2.50
2018-07-03T18:48:50.579Z,2.90
2018-07-03T18:51:18.817Z,2.70
2018-07-03T18:53:46.903Z,2.90
2018-07-03T18:56:14.821Z,2.60
2018-07-03T18:58:42.966Z,2.47
2018-07-03T19:01:11.114Z,2.97
2018-07-03T19:03:39.323Z,2.97
2018-07-03T19:06:07.534Z,3.33
2018-07-03T19:08:35.799Z,2.77
2018-07-03T19:11:04.011Z,2.67
2018-07-03T19:13:32.213Z,3.10
2018-07-03T19:16:00.434Z,3.07
2018-07-03T19:18:28.632Z,2.80
2018-07-03T19:20:56.829Z,2.77
2018-07-03T19:23:25.042Z,2.90
2018-07-03T19:25:53.258Z,2.70
2018-07-03T19:28:21.477Z,3.00
2018-07-03T19:30:49.674Z,3.10
2018-07-03T19:33:17.867Z,3.43
2018-07-03T19:35:46.084Z,3.30
2018-07-03T19:38:14.302Z,3.43
2018-07-03T19:40:42.696Z,3.20
2018-07-03T19:43:22.095Z,3.87
2018-07-03T19:45:51.545Z,3.33
2018-07-03T19:48:19.782Z,2.93
2018-07-03T19:50:49.530Z,3.10
2018-07-03T19:53:17.467Z,3.77
2018-07-03T19:55:46.336Z,3.70
2018-07-03T19:58:14.382Z,3.70
2018-07-03T20:00:42.617Z,3.40
2018-07-03T20:03:10.555Z,3.47
2018-07-03T20:05:38.716Z,3.23
2018-07-03T20:08:07.242Z,3.47
2018-07-03T20:10:36.048Z,3.73
2018-07-03T20:13:04.232Z,3.60
2018-07-03T20:15:32.390Z,3.33
2018-07-03T20:18:00.857Z,3.40
2018-07-03T20:20:29.011Z,4.23
2018-07-03T20:22:57.169Z,5.27
2018-07-03T20:25:28.575Z,5.90
2018-07-03T20:27:56.798Z,5.30
2018-07-03T20:30:24.980Z,4.97
2018-07-03T20:32:53.136Z,5.60
2018-07-03T20:35:21.307Z,4.90
2018-07-03T20:37:58.942Z,5.13
2018-07-03T20:40:27.990Z,4.63
2018-07-03T20:42:57.344Z,4.30
2018-07-03T20:45:32.738Z,4.20
2018-07-03T20:48:01.578Z,4.30
2018-07-03T20:56:04.597Z,3.87
2018-07-03T20:58:36.252Z,3.87
2018-07-03T21:01:04.152Z,4.00
2018-07-03T21:03:32.326Z,2.73
2018-07-03T21:06:00.521Z,3.30
2018-07-03T21:08:56.903Z,3.80
2018-07-03T21:11:25.130Z,3.70
2018-07-03T21:14:01.579Z,3.97
2018-07-03T21:16:32.439Z,3.83
2018-07-03T21:19:01.645Z,3.80
2018-07-03T21:21:29.967Z,3.83
2018-07-03T21:23:58.169Z,3.53
2018-07-03T21:26:26.399Z,3.83
2018-07-03T21:28:54.327Z,3.97
2018-07-03T21:31:22.501Z,3.90
2018-07-03T21:33:50.665Z,3.70
2018-07-03T21:36:18.836Z,3.97
2018-07-03T21:38:47.015Z,4.13
2018-07-03T21:41:15.203Z,3.90
2018-07-03T21:43:43.369Z,4.30
2018-07-03T21:46:11.530Z,3.83
2018-07-03T21:48:39.700Z,4.73
2018-07-03T21:51:07.901Z,4.40
2018-07-03T21:53:36.067Z,3.87
2018-07-03T21:56:04.276Z,4.90
2018-07-03T21:58:32.193Z,5.30
2018-07-03T22:01:00.359Z,4.80
2018-07-03T22:03:28.596Z,5.20
2018-07-03T22:05:56.573Z,5.50
2018-07-03T22:08:24.568Z,6.43
2018-07-03T22:10:52.722Z,6.77
2018-07-03T22:13:20.919Z,7.17
2018-07-03T22:15:49.154Z,6.80
2018-07-03T22:18:17.104Z,6.53
2018-07-03T22:20:46.142Z,8.27
2018-07-03T22:23:14.363Z,7.10
2018-07-03T22:25:42.562Z,5.93
2018-07-03T22:28:10.502Z,5.00
2018-07-03T22:30:38.723Z,5.70
2018-07-03T22:33:06.926Z,5.93
2018-07-03T22:35:35.137Z,6.30
2018-07-03T22:38:03.349Z,6.47
2018-07-03T22:40:31.559Z,6.27
2018-07-03T22:42:59.784Z,6.03
2018-07-03T22:45:28.017Z,5.70
2018-07-03T22:47:56.244Z,6.70
2018-07-03T22:50:24.434Z,5.33
2018-07-03T22:52:52.689Z,6.40
2018-07-03T22:55:20.878Z,7.30
2018-07-03T22:57:49.102Z,7.07
2018-07-03T23:00:17.292Z,8.37
2018-07-03T23:02:45.270Z,9.37
2018-07-03T23:05:13.452Z,9.00
2018-07-03T23:07:41.643Z,8.97
2018-07-03T23:10:09.800Z,8.00
2018-07-03T23:12:37.943Z,7.30
2018-07-03T23:15:06.104Z,7.30
2018-07-03T23:17:34.389Z,8.00
2018-07-03T23:20:02.535Z,7.10
2018-07-03T23:22:30.695Z,7.07
2018-07-03T23:24:58.867Z,6.80
2018-07-03T23:27:27.009Z,7.63
2018-07-03T23:29:55.168Z,8.40
2018-07-03T23:32:23.459Z,7.40
2018-07-03T23:34:51.611Z,6.60
2018-07-03T23:37:19.806Z,6.63
2018-07-03T23:39:47.969Z,6.03
2018-07-03T23:42:15.969Z,6.67
2018-07-03T23:44:44.156Z,6.37
2018-07-03T23:47:23.721Z,6.20
2018-07-03T23:50:03.304Z,5.30
2018-07-03T23:52:36.942Z,6.07
2018-07-03T23:55:16.774Z,5.30
2018-07-03T23:57:56.529Z,5.50
